Latest Coastal Weather Observations for Mandora

IDW60701

Issued at 8:15 am WST Thursday 23 October 2014 (issued every 10 minutes, with the page automatically refreshed every 10 minutes)

About coastal observations | Map of coastal stations | Coastal observations for WA | Marine services | Other Formats
Station Details ID: 004019 Name: MANDORA Lat: -19.74 Lon: 120.84 Height: 7.5 m
Data from the previous 72 hours. | See also: Recent months at Mandora
Date/Time
WST
Temp

°C
Wind Pressure Rain
since 9am
mm
Weather Cloud Vis
km
Sea
Height
m
Swell
Dir
 
Speed
knots
Gust
knots
hPa Trend Height
m
Period
s
Dir
23/08:00am 29.0 NE 2 4 1010.6 - 0.0 - - - - - - -
23/07:30am 28.1 NE 4 6 1010.4 - 0.0 - - - - - - -
23/07:00am 26.3 E 2 4 1010.2 - 0.0 - - - - - - -
23/06:30am 24.4 E 2 5 1010.1 - 0.0 - - - - - - -
23/06:00am 22.7 SSW 5 6 1009.5 - 0.0 - - - - - - -
23/05:30am 22.7 S 6 9 1009.3 - 0.0 - - - - - - -
23/05:00am 22.0 S 4 7 1008.9 - 0.0 - - - - - - -
23/04:30am 21.7 S 4 7 1008.5 - 0.0 - - - - - - -
23/04:00am 22.1 S 4 6 1008.6 - 0.0 - - - - - - -
23/03:30am 22.4 S 3 5 1008.4 - 0.0 - - - - - - -
23/03:00am 23.1 ESE 1 4 1008.5 - 0.0 - - - - - - -
23/02:30am 23.5 CALM 0 0 1008.8 - 0.0 - - - - - - -
23/02:00am 23.9 CALM 0 2 1009.0 - 0.0 - - - - - - -
23/01:30am 24.7 N 4 6 1009.1 - 0.0 - - - - - - -
23/01:00am 24.9 N 5 6 1009.3 - 0.0 - - - - - - -
23/12:30am 25.8 NNW 4 5 1009.7 - 0.0 - - - - - - -
23/12:00am 26.3 N 4 6 1010.0 - 0.0 - - - - - - -
 
Date/Time
WST
Temp

°C
Wind Pressure Rain
since 9am
mm
Weather Cloud Vis
km
Sea
Height
m
Swell
Dir
 
Speed
knots
Gust
knots
hPa Trend Height
m
Period
s
Dir
22/11:30pm 26.8 N 6 8 1010.3 - 0.0 - - - - - - -
22/11:00pm 27.0 NW 8 13 1010.4 - 0.0 - - - - - - -
22/10:30pm 27.2 NNW 6 9 1010.7 - 0.0 - - - - - - -
22/10:00pm 27.1 N 6 9 1011.0 - 0.0 - - - - - - -
22/09:30pm 27.2 N 7 11 1010.9 - 0.0 - - - - - - -
22/09:00pm 27.5 N 8 11 1010.7 - 0.0 - - - - - - -
22/08:30pm 28.6 N 10 14 1010.6 - 0.0 - - - - - - -
22/08:00pm 28.1 N 12 16 1010.4 - 0.0 - - - - - - -
22/07:30pm 28.1 N 12 17 1010.3 - 0.0 - - - - - - -
22/07:00pm 28.1 N 13 17 1010.0 - 0.0 - - - - - - -
22/06:30pm 28.5 N 12 19 1009.5 - 0.0 - - - - - - -
22/06:00pm 31.2 N 9 14 1008.8 - 0.0 - - - - - - -
22/05:30pm 34.6 N 10 12 1008.0 - 0.0 - - - - - - -
22/05:00pm 37.6 WNW 9 14 1007.1 - 0.0 - - - - - - -
22/04:30pm 38.8 WNW 12 19 1007.0 - 0.0 - - - - - - -
22/04:00pm 39.3 WNW 12 19 1007.0 - 0.0 - - - - - - -
22/03:30pm 40.2 WNW 14 19 1007.0 - 0.0 - - - - - - -
22/03:00pm 42.8 W 7 15 1006.9 - 0.0 - - - - - - -
22/02:30pm 43.6 S 6 11 1007.2 - 0.0 - - - - - - -
22/02:00pm 42.9 NNE 5 9 1007.7 - 0.0 - - - - - - -
22/01:30pm 43.7 E 5 10 1008.1 - 0.0 - - - - - - -
22/01:00pm 43.1 SE 6 13 1008.7 - 0.0 - - - - - - -
22/12:30pm 43.3 S 10 17 1009.3 - 0.0 - - - - - - -
22/12:00pm 43.2 S 10 18 1009.7 - 0.0 - - - - - - -
22/11:30am 41.9 S 14 24 1010.4 - 0.0 - - - - - - -
22/11:00am 41.3 S 12 23 1010.9 - 0.0 - - - - - - -
22/10:30am 40.9 S 13 20 1011.2 - 0.0 - - - - - - -
22/10:04am 39.8 S 15 25 1011.5 - 0.0 - - - - - - -
22/10:00am 39.7 S 16 25 1011.5 - 0.0 - - - - - - -
22/09:30am 39.3 SSE 16 24 1011.8 - 0.0 - - - - - - -
22/09:00am 38.6 S 15 23 1011.8 - 0.0 - - - - - - -
22/08:30am 37.7 S 16 26 1011.8 - 0.0 - - - - - - -
22/08:00am 35.8 S 15 21 1011.6 - 0.0 - - - - - - -
22/07:30am 33.3 S 13 20 1011.4 - 0.0 - - - - - - -
22/07:00am 31.0 S 11 15 1011.3 - 0.0 - - - - - - -
22/06:30am 28.6 S 9 15 1010.9 - 0.0 - - - - - - -
22/06:00am 26.7 S 10 12 1010.4 - 0.0 - - - - - - -
22/05:30am 25.5 S 8 11 1010.2 - 0.0 - - - - - - -
22/05:00am 26.8 S 9 13 1010.0 - 0.0 - - - - - - -
22/04:30am 27.1 S 10 12 1009.7 - 0.0 - - - - - - -
22/04:00am 26.2 S 9 11 1009.6 - 0.0 - - - - - - -
22/03:30am 25.9 S 9 11 1009.5 - 0.0 - - - - - - -
22/03:00am 26.0 S 8 10 1009.6 - 0.0 - - - - - - -
22/02:30am 26.9 SSE 7 9 1009.7 - 0.0 - - - - - - -
22/02:00am 27.9 SSW 9 12 1009.2 - 0.0 - - - - - - -
22/01:30am 26.9 SSW 10 12 1009.5 - 0.0 - - - - - - -
22/01:00am 24.6 SSW 8 9 1010.1 - 0.0 - - - - - - -
22/12:30am 25.1 SW 7 9 1010.4 - 0.0 - - - - - - -
22/12:00am 24.5 SW 7 7 1010.8 - 0.0 - - - - - - -
 
Date/Time
WST
Temp

°C
Wind Pressure Rain
since 9am
mm
Weather Cloud Vis
km
Sea
Height
m
Swell
Dir
 
Speed
knots
Gust
knots
hPa Trend Height
m
Period
s
Dir
21/11:30pm 25.4 S 5 7 1011.3 - 0.0 - - - - - - -
21/11:00pm 26.5 SW 7 8 1011.6 - 0.0 - - - - - - -
21/10:30pm 26.6 WSW 8 10 1011.9 - 0.0 - - - - - - -
21/10:00pm 26.9 WSW 9 11 1012.5 - 0.0 - - - - - - -
21/09:30pm 26.9 WSW 9 11 1012.6 - 0.0 - - - - - - -
21/09:00pm 26.4 SW 4 5 1012.4 - 0.0 - - - - - - -
21/08:30pm 27.1 WSW 8 9 1012.3 - 0.0 - - - - - - -
21/08:00pm 26.4 W 6 7 1012.3 - 0.0 - - - - - - -
21/07:30pm 27.2 W 6 7 1012.0 - 0.0 - - - - - - -
21/07:00pm 28.7 W 7 10 1011.7 - 0.0 - - - - - - -
21/06:30pm 30.1 W 8 10 1011.3 - 0.0 - - - - - - -
21/06:00pm 31.9 W 9 13 1010.9 - 0.0 - - - - - - -
21/05:30pm 34.1 W 11 16 1010.6 - 0.0 - - - - - - -
21/05:00pm 36.4 W 12 17 1010.2 - 0.0 - - - - - - -
21/04:30pm 38.0 W 12 17 1009.9 - 0.0 - - - - - - -
21/04:00pm 38.9 W 13 18 1009.8 - 0.0 - - - - - - -
21/03:30pm 39.3 WNW 13 17 1009.9 - 0.0 - - - - - - -
21/03:00pm 39.5 WNW 12 18 1009.9 - 0.0 - - - - - - -
21/02:30pm 40.6 WNW 13 17 1010.0 - 0.0 - - - - - - -
21/02:00pm 41.9 W 13 19 1010.1 - 0.0 - - - - - - -
21/01:30pm 41.4 WSW 8 13 1010.5 - 0.0 - - - - - - -
21/01:00pm 42.0 SW 9 20 1011.1 - 0.0 - - - - - - -
21/12:30pm 40.8 SSW 7 11 1011.8 - 0.0 - - - - - - -
21/12:00pm 40.9 WNW 8 14 1012.3 - 0.0 - - - - - - -
21/11:30am 40.8 S 7 13 1012.8 - 0.0 - - - - - - -
21/11:00am 40.9 WSW 8 15 1013.4 - 0.0 - - - - - - -
21/10:30am 40.7 SSW 11 17 1013.8 - 0.0 - - - - - - -
21/10:00am 40.0 S 7 19 1014.1 - 0.0 - - - - - - -
21/09:30am 39.4 S 13 20 1014.5 - 0.0 - - - - - - -
21/09:00am 37.8 S 12 17 1014.5 - 0.0 - - - - - - -
21/08:30am 36.5 S 10 15 1015.1 - 0.0 - - - - - - -
21/08:00am 34.3 S 9 16 1014.9 - 0.0 - - - - - - -
21/07:51am 33.8 S 9 12 1014.8 - 0.0 - - - - - - -
21/07:30am 28.6 SW 3 5 1014.8 - 0.0 - - - - - - -
21/07:00am 24.2 CALM 0 0 1014.7 - 0.0 - - - - - - -
21/06:30am 20.3 NW 2 4 1014.4 - 0.0 - - - - - - -
21/06:00am 17.7 NNW 4 5 1013.9 - 0.0 - - - - - - -
21/05:30am 17.8 N 2 5 1013.6 - 0.0 - - - - - - -
21/05:00am 19.9 ENE 4 8 1013.2 - 0.0 - - - - - - -
21/04:30am 21.3 SSW 7 11 1012.8 - 0.0 - - - - - - -
21/04:00am 22.1 SW 9 11 1012.6 - 0.0 - - - - - - -
21/03:30am 22.6 SW 9 12 1012.7 - 0.0 - - - - - - -
21/03:00am 22.9 SW 10 14 1012.5 - 0.0 - - - - - - -
21/02:30am 22.7 SW 10 13 1012.6 - 0.0 - - - - - - -
21/02:00am 23.2 SW 9 13 1012.6 - 0.0 - - - - - - -
21/01:30am 23.8 SW 11 17 1012.7 - 0.0 - - - - - - -
21/01:00am 23.9 SW 11 14 1012.9 - 0.0 - - - - - - -
21/12:30am 23.8 SW 10 14 1013.1 - 0.0 - - - - - - -
21/12:00am 23.9 SW 10 15 1013.3 - 0.0 - - - - - - -
 
Date/Time
WST
Temp

°C
Wind Pressure Rain
since 9am
mm
Weather Cloud Vis
km
Sea
Height
m
Swell
Dir
 
Speed
knots
Gust
knots
hPa Trend Height
m
Period
s
Dir
20/11:30pm 24.1 WSW 8 11 1013.8 - 0.0 - - - - - - -
20/11:00pm 23.6 WSW 9 12 1014.1 - 0.0 - - - - - - -
20/10:30pm 22.8 WSW 7 10 1014.3 - 0.0 - - - - - - -
20/10:00pm 22.9 WSW 7 9 1014.4 - 0.0 - - - - - - -
20/09:30pm 22.9 W 5 7 1014.4 - 0.0 - - - - - - -
20/09:00pm 23.9 W 7 9 1014.1 - 0.0 - - - - - - -
20/08:30pm 24.5 W 7 8 1014.1 - 0.0 - - - - - - -
20/08:00pm 24.8 W 6 8 1013.8 - 0.0 - - - - - - -
20/07:30pm 25.4 W 7 10 1013.5 - 0.0 - - - - - - -
20/07:00pm 25.7 W 8 11 1013.0 - 0.0 - - - - - - -
20/06:30pm 26.3 W 8 12 1012.7 - 0.0 - - - - - - -
20/06:00pm 26.9 WNW 9 14 1012.1 - 0.0 - - - - - - -
20/05:30pm 28.5 WNW 10 15 1011.9 - 0.0 - - - - - - -
20/05:00pm 29.8 WNW 11 17 1011.6 - 0.0 - - - - - - -
20/04:30pm 31.1 WNW 11 16 1011.4 - 0.0 - - - - - - -
20/04:00pm 32.6 WNW 10 16 1011.1 - 0.0 - - - - - - -
20/03:30pm 34.3 WNW 12 17 1011.0 - 0.0 - - - - - - -
20/03:00pm 34.1 WNW 13 17 1011.0 - 0.0 - - - - - - -
20/02:30pm 34.5 WNW 12 17 1011.1 - 0.0 - - - - - - -
20/02:00pm 34.8 NW 11 16 1011.5 - 0.0 - - - - - - -
20/01:30pm 34.6 NW 13 17 1011.9 - 0.0 - - - - - - -
20/01:00pm 35.3 NW 11 15 1012.2 - 0.0 - - - - - - -
20/12:30pm 34.5 NW 10 16 1012.6 - 0.0 - - - - - - -
20/12:00pm 34.1 NW 11 15 1013.0 - 0.0 - - - - - - -
20/11:30am 34.2 NW 11 15 1013.4 - 0.0 - - - - - - -
20/11:00am 34.3 NW 10 14 1013.7 - 0.0 - - - - - - -
20/10:30am 35.1 WNW 9 14 1014.1 - 0.0 - - - - - - -
20/10:00am 34.9 SW 7 11 1014.5 - 0.0 - - - - - - -
20/09:30am 33.4 WSW 7 11 1015.0 - 0.0 - - - - - - -
20/09:00am 31.7 WSW 7 11 1015.0 - 0.0 - - - - - - -
20/08:30am 30.0 WSW 8 12 1015.2 - 0.0 - - - - - - -

Other Formats:

Comma delimited format used in spreadsheet applications
http://www.bom.gov.au/fwo/IDW60701/IDW60701.94200.axf

JavaScript Object Notation format (JSON) in row-major order
http://www.bom.gov.au/fwo/IDW60701/IDW60701.94200.json